Terminal Aerodrome Forecast
Issued by NWS New Orleans/Baton Rouge, LA

Home | Current Version | Previous Version | Text Only | Print | Product List | Glossary On
Versions: 1 2 3 4 5 6 7 8 9 10 11 12 13 14
000
FTUS44 KLIX 032339
TAFBTR
TAF
KBTR 032339Z 0400/0424 20011KT P6SM SCT040 BKN250
     FM040100 20006KT P6SM BKN250
     FM040800 18003KT P6SM SCT010 BKN100
     FM041300 24005KT P6SM SCT030 BKN100
     FM042100 22008KT P6SM SCT035 BKN050
      TEMPO 0421/0424 2SM TSRA BKN030CB=

USA.gov is the U.S. government's official web portal to all federal, state and local government web resources and services.